createdAt,value
2022-08-03T00:04:52.225Z,27.57
2022-08-03T00:09:59.457Z,27.63
2022-08-03T00:15:11.076Z,27.72
2022-08-03T00:20:13.940Z,27.78
2022-08-03T00:25:21.159Z,27.76
2022-08-03T00:30:30.783Z,27.79
2022-08-03T00:35:36.843Z,27.80
2022-08-03T00:40:42.851Z,27.90
2022-08-03T00:45:50.161Z,27.94
2022-08-03T00:50:57.329Z,28.00
2022-08-03T00:56:04.572Z,28.00
2022-08-03T01:01:11.856Z,27.63
2022-08-03T01:06:18.948Z,27.39
2022-08-03T01:11:26.142Z,27.16
2022-08-03T01:16:36.790Z,27.07
2022-08-03T01:21:40.705Z,27.01
2022-08-03T01:26:47.899Z,27.16
2022-08-03T01:32:58.669Z,27.15
2022-08-03T01:37:02.229Z,27.07
2022-08-03T01:42:09.433Z,26.98
2022-08-03T01:47:16.565Z,26.90
2022-08-03T01:52:23.789Z,26.87
2022-08-03T01:57:31.084Z,26.84
2022-08-03T02:02:38.739Z,26.75
2022-08-03T02:07:45.446Z,26.64
2022-08-03T02:12:52.644Z,26.57
2022-08-03T02:17:59.818Z,26.48
2022-08-03T02:23:06.993Z,26.42
2022-08-03T02:28:14.164Z,26.33
2022-08-03T02:33:21.397Z,26.31
2022-08-03T02:38:28.564Z,26.24
2022-08-03T02:44:00.352Z,26.18
2022-08-03T02:48:42.950Z,26.15
2022-08-03T02:53:50.115Z,26.09
2022-08-03T02:58:57.337Z,26.05
2022-08-03T03:04:04.588Z,25.99
2022-08-03T03:09:11.838Z,25.93
2022-08-03T03:14:19.106Z,25.88
2022-08-03T03:19:26.297Z,25.88
2022-08-03T03:24:33.515Z,25.84
2022-08-03T03:29:40.737Z,25.73
2022-08-03T03:34:47.962Z,25.74
2022-08-03T03:39:55.175Z,25.72
2022-08-03T03:45:02.359Z,25.67
2022-08-03T03:50:09.616Z,25.54
2022-08-03T03:55:16.829Z,25.55
2022-08-03T04:00:24.048Z,25.53
2022-08-03T04:05:31.297Z,25.52
2022-08-03T04:10:39.080Z,25.50
2022-08-03T04:15:46.295Z,25.42
2022-08-03T04:20:53.468Z,25.37
2022-08-03T04:26:00.757Z,25.34
2022-08-03T04:31:07.974Z,25.28
2022-08-03T04:36:15.200Z,25.24
2022-08-03T04:41:22.338Z,25.29
2022-08-03T04:46:29.573Z,25.22
2022-08-03T04:51:36.754Z,25.18
2022-08-03T04:56:43.960Z,25.30
2022-08-03T05:01:51.178Z,25.25
2022-08-03T05:06:58.451Z,25.17
2022-08-03T05:12:05.604Z,25.23
2022-08-03T05:17:12.779Z,25.19
2022-08-03T05:22:20.021Z,25.21
2022-08-03T05:27:27.259Z,25.19
2022-08-03T05:32:34.462Z,25.17
2022-08-03T05:37:41.705Z,25.14
2022-08-03T05:42:48.955Z,25.09
2022-08-03T05:47:56.188Z,25.05
2022-08-03T05:53:03.395Z,25.06
2022-08-03T05:58:10.540Z,25.11
2022-08-03T06:03:17.725Z,25.11
2022-08-03T06:08:24.954Z,25.09
2022-08-03T06:13:32.177Z,25.13
2022-08-03T06:18:39.309Z,25.25
2022-08-03T06:23:54.532Z,25.36
2022-08-03T06:28:54.646Z,25.37
2022-08-03T06:34:34.303Z,25.42
2022-08-03T06:39:08.455Z,25.40
2022-08-03T06:44:15.597Z,25.49
2022-08-03T06:49:22.917Z,25.59
2022-08-03T06:54:32.885Z,25.66
2022-08-03T07:00:09.607Z,25.70
2022-08-03T07:04:45.389Z,25.79
2022-08-03T07:09:57.168Z,25.87
2022-08-03T07:15:02.622Z,25.94
2022-08-03T07:20:06.957Z,25.99
2022-08-03T07:25:14.133Z,26.03
2022-08-03T07:30:21.279Z,26.08
2022-08-03T07:35:29.051Z,26.13
2022-08-03T07:40:36.287Z,26.20
2022-08-03T07:45:43.538Z,26.25
2022-08-03T07:50:50.770Z,26.31
2022-08-03T07:55:58.048Z,26.33
2022-08-03T08:01:05.256Z,26.41
2022-08-03T08:06:12.458Z,26.46
2022-08-03T08:11:19.700Z,26.48
2022-08-03T08:16:26.955Z,26.53
2022-08-03T08:21:53.236Z,26.57
2022-08-03T08:26:41.347Z,26.61
2022-08-03T08:31:48.525Z,26.67
2022-08-03T08:36:55.737Z,26.71
2022-08-03T08:42:02.927Z,26.74
2022-08-03T08:47:10.124Z,26.77
2022-08-03T08:52:25.224Z,26.79
2022-08-03T08:57:41.890Z,26.79
2022-08-03T09:02:31.943Z,26.83
2022-08-03T09:07:39.201Z,26.88
2022-08-03T09:12:46.460Z,26.98
2022-08-03T09:17:53.609Z,27.06
2022-08-03T09:23:00.790Z,27.14
2022-08-03T09:28:07.951Z,27.20
2022-08-03T09:33:15.175Z,27.26
2022-08-03T09:38:22.347Z,27.31
2022-08-03T09:43:29.530Z,27.38
2022-08-03T09:48:36.715Z,27.43
2022-08-03T09:53:58.521Z,27.47
2022-08-03T09:58:51.179Z,27.53
2022-08-03T10:04:04.054Z,27.61
2022-08-03T10:09:05.670Z,27.62
2022-08-03T10:14:12.857Z,27.65
2022-08-03T10:19:20.065Z,27.68
2022-08-03T10:24:27.327Z,27.73
2022-08-03T10:29:34.512Z,27.78
2022-08-03T10:34:44.541Z,27.82
2022-08-03T10:39:49.003Z,27.87
2022-08-03T10:44:56.255Z,27.93
2022-08-03T10:50:03.443Z,27.93
2022-08-03T10:55:10.875Z,27.98
2022-08-03T11:00:17.979Z,27.97
2022-08-03T11:05:25.206Z,28.00
2022-08-03T11:10:32.474Z,28.00
2022-08-03T11:15:40.329Z,28.03
2022-08-03T11:20:47.466Z,28.05
2022-08-03T11:25:55.423Z,28.06
2022-08-03T11:31:01.931Z,28.09
2022-08-03T11:36:09.123Z,28.10
2022-08-03T11:41:16.322Z,28.12
2022-08-03T11:46:28.279Z,28.15
2022-08-03T11:51:30.845Z,28.18
2022-08-03T11:56:38.094Z,28.20
2022-08-03T12:01:45.335Z,28.24
2022-08-03T12:06:52.556Z,28.26
2022-08-03T12:12:01.256Z,28.30
2022-08-03T12:17:07.065Z,28.35
2022-08-03T12:22:14.268Z,28.40
2022-08-03T12:27:21.490Z,28.46
2022-08-03T12:32:28.777Z,28.49
2022-08-03T12:37:36.443Z,28.50
2022-08-03T12:42:43.241Z,28.54
2022-08-03T12:47:50.534Z,28.58
2022-08-03T12:52:57.776Z,28.60
2022-08-03T12:58:04.985Z,28.54
2022-08-03T13:03:39.796Z,28.50
2022-08-03T13:08:19.368Z,28.51
2022-08-03T13:13:26.667Z,28.61
2022-08-03T13:18:33.908Z,28.59
2022-08-03T13:23:41.103Z,28.65
2022-08-03T13:28:48.332Z,28.67
2022-08-03T13:33:55.769Z,28.69
2022-08-03T13:39:03.097Z,28.75
2022-08-03T13:44:28.307Z,28.76
2022-08-03T13:49:17.462Z,28.79
2022-08-03T13:54:24.712Z,28.80
2022-08-03T13:59:31.902Z,28.77
2022-08-03T14:04:39.087Z,28.76
2022-08-03T14:09:46.444Z,28.80
2022-08-03T14:14:56.970Z,28.82
2022-08-03T14:20:01.008Z,28.84
2022-08-03T14:25:09.787Z,28.84
2022-08-03T14:30:15.315Z,28.87
2022-08-03T14:35:22.499Z,28.87
2022-08-03T14:40:29.713Z,28.92
2022-08-03T14:45:36.971Z,28.90
2022-08-03T14:50:50.165Z,28.91
2022-08-03T14:55:52.031Z,28.95
2022-08-03T15:00:58.588Z,28.94
2022-08-03T15:06:05.840Z,29.00
2022-08-03T15:11:13.012Z,29.01
2022-08-03T15:16:20.220Z,29.08
2022-08-03T15:21:46.559Z,29.08
2022-08-03T15:26:39.270Z,29.08
2022-08-03T15:31:41.808Z,29.11
2022-08-03T15:36:49.052Z,29.10
2022-08-03T15:41:56.211Z,29.13
2022-08-03T15:47:03.592Z,29.15
2022-08-03T15:52:10.938Z,29.13
2022-08-03T15:57:18.690Z,29.15
2022-08-03T16:02:25.394Z,29.14
2022-08-03T16:07:32.589Z,29.14
2022-08-03T16:12:40.134Z,29.16
2022-08-03T16:17:47.330Z,29.19
2022-08-03T16:22:54.700Z,29.20
2022-08-03T16:28:07.924Z,29.25
2022-08-03T16:33:09.105Z,29.31
2022-08-03T16:38:19.139Z,29.34
2022-08-03T16:43:23.867Z,29.33
2022-08-03T16:48:31.103Z,29.31
2022-08-03T16:54:05.594Z,29.27
2022-08-03T16:58:46.846Z,29.26
2022-08-03T17:04:01.317Z,29.25
2022-08-03T17:09:01.717Z,29.23
2022-08-03T17:14:09.889Z,29.24
2022-08-03T17:19:16.153Z,29.24
2022-08-03T17:24:23.340Z,29.23
2022-08-03T17:29:30.648Z,29.22
2022-08-03T17:34:37.870Z,29.22
2022-08-03T17:40:00.301Z,29.22
2022-08-03T17:44:52.272Z,29.22
2022-08-03T17:49:59.423Z,29.23
2022-08-03T17:55:57.137Z,29.23
2022-08-03T18:00:13.842Z,29.23
2022-08-03T18:05:21.976Z,29.22
2022-08-03T18:10:28.378Z,29.21
2022-08-03T18:15:35.595Z,29.22
2022-08-03T18:20:42.863Z,29.21
2022-08-03T18:25:56.128Z,29.20
2022-08-03T18:30:57.863Z,29.19
2022-08-03T18:36:05.115Z,29.17
2022-08-03T18:41:17.129Z,29.17
2022-08-03T18:46:19.631Z,29.17
2022-08-03T18:51:33.928Z,29.14
2022-08-03T18:56:34.232Z,29.14
2022-08-03T19:01:57.449Z,29.16
2022-08-03T19:06:49.272Z,29.13
2022-08-03T19:12:12.553Z,29.11
2022-08-03T19:17:04.409Z,29.07
2022-08-03T19:22:12.021Z,29.08
2022-08-03T19:27:19.420Z,29.05
2022-08-03T19:32:27.811Z,29.03
2022-08-03T19:37:39.754Z,29.05
2022-08-03T19:42:42.885Z,29.08
2022-08-03T19:47:50.232Z,29.07
2022-08-03T19:52:57.505Z,29.08
2022-08-03T19:58:05.010Z,29.14
2022-08-03T20:03:21.872Z,29.18
2022-08-03T20:08:20.027Z,29.19
2022-08-03T20:13:28.311Z,29.20
2022-08-03T20:18:39.233Z,29.18
2022-08-03T20:24:01.931Z,29.15
2022-08-03T20:28:51.178Z,29.15
2022-08-03T20:33:57.430Z,29.14
2022-08-03T20:39:07.497Z,29.17
2022-08-03T20:44:11.809Z,29.17
2022-08-03T20:49:19.085Z,29.14
2022-08-03T20:54:31.326Z,29.10
2022-08-03T20:59:47.333Z,29.08
2022-08-03T21:04:40.714Z,29.09
2022-08-03T21:09:49.711Z,29.06
2022-08-03T21:14:55.200Z,29.02
2022-08-03T21:20:02.479Z,28.97
2022-08-03T21:25:09.802Z,28.94
2022-08-03T21:30:16.978Z,28.90
2022-08-03T21:35:24.230Z,28.86
2022-08-03T21:40:31.454Z,28.85
2022-08-03T21:45:40.394Z,28.83
2022-08-03T21:50:45.886Z,28.84
2022-08-03T21:55:53.210Z,28.82
2022-08-03T22:01:00.467Z,28.81
2022-08-03T22:06:07.705Z,28.80
2022-08-03T22:11:14.993Z,28.80
2022-08-03T22:16:22.123Z,28.78
2022-08-03T22:21:36.298Z,28.77
2022-08-03T22:26:36.607Z,28.79
2022-08-03T22:31:58.221Z,28.76
2022-08-03T22:36:51.070Z,28.61
2022-08-03T22:41:58.237Z,28.52
2022-08-03T22:47:05.511Z,28.47
2022-08-03T22:52:12.712Z,28.45
2022-08-03T22:57:20.330Z,28.43
2022-08-03T23:02:27.134Z,28.40
2022-08-03T23:07:34.397Z,28.35
2022-08-03T23:12:41.622Z,28.30
2022-08-03T23:17:57.988Z,28.29
2022-08-03T23:22:56.296Z,28.26
2022-08-03T23:28:05.500Z,28.26
2022-08-03T23:33:10.747Z,28.21
2022-08-03T23:38:21.943Z,28.12
2022-08-03T23:43:45.161Z,28.07
2022-08-03T23:48:32.459Z,28.05
2022-08-03T23:53:39.639Z,28.13
2022-08-03T23:58:46.809Z,28.14
